createdAt,value
2019-01-13T00:01:28.880Z,1.30
2019-01-13T00:03:56.547Z,1.30
2019-01-13T00:06:24.303Z,1.30
2019-01-13T00:08:52.076Z,1.30
2019-01-13T00:11:19.920Z,1.30
2019-01-13T00:13:47.778Z,1.30
2019-01-13T00:16:15.712Z,1.30
2019-01-13T00:18:43.528Z,1.30
2019-01-13T00:21:11.351Z,1.40
2019-01-13T00:23:39.353Z,1.40
2019-01-13T00:26:07.198Z,1.40
2019-01-13T00:28:34.960Z,1.40
2019-01-13T00:31:02.720Z,1.40
2019-01-13T00:33:30.556Z,1.40
2019-01-13T00:35:58.429Z,1.40
2019-01-13T00:38:26.161Z,1.40
2019-01-13T00:40:54.079Z,1.40
2019-01-13T00:43:22.619Z,1.40
2019-01-13T00:45:51.298Z,1.40
2019-01-13T00:48:19.889Z,1.40
2019-01-13T00:50:48.479Z,1.50
2019-01-13T00:53:17.134Z,1.40
2019-01-13T00:55:45.621Z,1.50
2019-01-13T00:58:14.125Z,1.50
2019-01-13T01:00:42.830Z,1.40
2019-01-13T01:03:11.590Z,1.50
2019-01-13T01:05:40.179Z,1.50
2019-01-13T01:08:09.755Z,1.50
2019-01-13T01:10:37.627Z,1.50
2019-01-13T01:13:06.274Z,1.50
2019-01-13T01:15:34.834Z,1.50
2019-01-13T01:18:03.607Z,1.50
2019-01-13T01:20:32.097Z,1.60
2019-01-13T01:23:00.745Z,1.60
2019-01-13T01:25:29.422Z,1.60
2019-01-13T01:27:58.035Z,1.60
2019-01-13T01:30:33.284Z,1.60
2019-01-13T01:32:56.880Z,1.60
2019-01-13T01:35:25.484Z,1.60
2019-01-13T01:37:54.055Z,1.60
2019-01-13T01:40:22.702Z,1.70
2019-01-13T01:42:51.506Z,1.70
2019-01-13T01:45:20.629Z,1.70
2019-01-13T01:47:49.277Z,1.70
2019-01-13T01:50:17.881Z,1.70
2019-01-13T01:52:46.777Z,1.70
2019-01-13T01:55:17.452Z,1.70
2019-01-13T01:57:46.163Z,1.70
2019-01-13T02:00:22.266Z,1.70
2019-01-13T02:02:50.943Z,1.70
2019-01-13T02:05:19.733Z,1.70
2019-01-13T02:07:48.805Z,1.70
2019-01-13T02:10:18.631Z,1.70
2019-01-13T02:12:49.914Z,1.70
2019-01-13T02:15:20.792Z,1.60
2019-01-13T02:17:49.660Z,1.60
2019-01-13T02:20:19.760Z,1.60
2019-01-13T02:22:48.335Z,1.60
2019-01-13T02:25:19.787Z,1.60
2019-01-13T02:27:48.556Z,1.60
2019-01-13T02:30:19.649Z,1.60
2019-01-13T02:32:48.376Z,1.60
2019-01-13T02:35:17.143Z,1.50
2019-01-13T02:37:45.972Z,1.50
2019-01-13T02:40:16.820Z,1.50
2019-01-13T02:42:46.527Z,1.50
2019-01-13T04:24:45.887Z,1.80
2019-01-13T04:27:11.851Z,1.80
2019-01-13T04:29:40.454Z,1.80
2019-01-13T04:32:09.146Z,1.80
2019-01-13T04:34:37.746Z,1.80
2019-01-13T04:37:06.356Z,1.80
2019-01-13T04:39:34.953Z,1.80
2019-01-13T04:42:03.547Z,1.80
2019-01-13T04:44:32.209Z,1.80
2019-01-13T04:47:00.812Z,1.90
2019-01-13T04:49:29.331Z,1.90
2019-01-13T04:51:58.027Z,1.90
2019-01-13T04:54:26.608Z,1.90
2019-01-13T04:56:55.152Z,1.90
2019-01-13T04:59:23.739Z,1.90
2019-01-13T05:01:52.352Z,1.90
2019-01-13T05:04:20.978Z,1.90
2019-01-13T05:06:49.570Z,1.90
2019-01-13T05:09:18.096Z,1.90
2019-01-13T05:11:46.690Z,1.90
2019-01-13T05:14:15.314Z,1.90
2019-01-13T05:16:43.932Z,1.90
2019-01-13T05:19:11.833Z,1.90
2019-01-13T05:21:39.683Z,1.90
2019-01-13T05:24:07.402Z,1.90
2019-01-13T05:26:35.158Z,1.90
2019-01-13T05:29:03.028Z,1.90
2019-01-13T05:31:30.938Z,1.90
2019-01-13T05:33:58.885Z,1.90
2019-01-13T05:36:26.742Z,2.00
2019-01-13T05:38:54.639Z,2.00
2019-01-13T05:41:22.459Z,2.00
2019-01-13T05:43:50.324Z,2.00
2019-01-13T05:46:18.286Z,2.00
2019-01-13T05:48:46.158Z,2.00
2019-01-13T05:51:13.967Z,2.00
2019-01-13T05:53:41.723Z,2.00
2019-01-13T05:56:09.475Z,2.00
2019-01-13T05:58:37.310Z,2.00
2019-01-13T06:01:05.154Z,2.00
2019-01-13T06:03:33.068Z,2.00
2019-01-13T06:06:00.976Z,2.00
2019-01-13T06:08:28.792Z,2.00
2019-01-13T06:10:56.659Z,2.00
2019-01-13T06:13:24.379Z,1.90
2019-01-13T06:15:52.247Z,2.00
2019-01-13T06:18:20.032Z,2.00
2019-01-13T06:20:47.787Z,2.00
2019-01-13T06:23:15.557Z,2.00
2019-01-13T06:25:43.428Z,1.90
2019-01-13T06:28:11.378Z,2.00
2019-01-13T06:30:39.243Z,2.00
2019-01-13T06:33:07.067Z,2.00
2019-01-13T06:35:34.928Z,2.00
2019-01-13T06:38:03.760Z,2.00
2019-01-13T06:40:31.674Z,2.00
2019-01-13T06:42:59.487Z,2.00
2019-01-13T06:45:27.379Z,2.00
2019-01-13T06:47:55.477Z,2.00
2019-01-13T06:50:23.336Z,2.00
2019-01-13T06:52:51.533Z,2.10
2019-01-13T06:55:19.600Z,2.10
2019-01-13T06:57:47.457Z,2.00
2019-01-13T07:00:19.606Z,2.00
2019-01-13T07:02:47.445Z,2.00
2019-01-13T07:05:15.292Z,2.00
2019-01-13T07:07:43.192Z,2.00
2019-01-13T07:10:11.420Z,2.00
2019-01-13T07:12:39.180Z,2.00
2019-01-13T07:15:08.536Z,2.00
2019-01-13T07:17:36.584Z,2.00
2019-01-13T07:20:06.144Z,2.00
2019-01-13T07:22:34.230Z,2.00
2019-01-13T07:25:02.291Z,2.10
2019-01-13T07:27:30.195Z,2.00
2019-01-13T07:29:58.146Z,2.00
2019-01-13T07:32:26.254Z,2.10
2019-01-13T07:34:54.332Z,2.00
2019-01-13T07:37:24.175Z,2.00
2019-01-13T07:39:53.676Z,2.00
2019-01-13T07:42:21.635Z,2.10
2019-01-13T07:44:50.337Z,2.00
2019-01-13T07:47:19.682Z,2.00
2019-01-13T07:49:49.037Z,2.10
2019-01-13T07:52:18.437Z,2.10
2019-01-13T07:54:46.358Z,2.10
2019-01-13T07:57:15.243Z,2.20
2019-01-13T07:59:43.077Z,2.10
2019-01-13T08:02:17.698Z,2.20
2019-01-13T08:04:40.542Z,2.20
2019-01-13T08:07:08.414Z,2.20
2019-01-13T08:09:36.316Z,2.20
2019-01-13T08:12:04.457Z,2.30
2019-01-13T08:14:32.320Z,2.30
2019-01-13T08:17:00.375Z,2.30
2019-01-13T08:19:28.341Z,2.30
2019-01-13T08:21:56.246Z,2.30
2019-01-13T08:24:24.112Z,2.40
2019-01-13T08:26:52.011Z,2.40
2019-01-13T08:29:19.862Z,2.40
2019-01-13T08:31:51.189Z,2.50
2019-01-13T08:34:19.001Z,2.50
2019-01-13T08:36:47.131Z,2.50
2019-01-13T08:39:15.130Z,2.50
2019-01-13T08:41:43.038Z,2.60
2019-01-13T08:44:10.933Z,2.60
2019-01-13T08:46:38.760Z,2.60
2019-01-13T08:49:06.701Z,2.50
2019-01-13T08:51:34.463Z,2.50
2019-01-13T08:54:02.325Z,2.50
2019-01-13T08:56:30.318Z,2.40
2019-01-13T08:58:58.158Z,2.40
2019-01-13T09:01:27.155Z,2.40
2019-01-13T09:03:55.387Z,2.40
2019-01-13T09:06:23.408Z,2.50
2019-01-13T09:08:51.276Z,2.50
2019-01-13T09:11:19.158Z,2.60
2019-01-13T09:13:47.037Z,2.60
2019-01-13T09:16:14.924Z,2.60
2019-01-13T09:18:42.960Z,2.70
2019-01-13T09:21:10.811Z,2.70
2019-01-13T09:23:38.718Z,2.70
2019-01-13T09:26:06.698Z,2.70
2019-01-13T09:28:34.590Z,2.80
2019-01-13T09:31:02.402Z,2.80
2019-01-13T09:33:30.271Z,2.90
2019-01-13T09:35:58.958Z,2.90
2019-01-13T09:38:26.770Z,3.00
2019-01-13T09:40:54.667Z,3.00
2019-01-13T09:43:22.507Z,3.10
2019-01-13T09:45:50.459Z,3.10
2019-01-13T09:48:18.309Z,3.20
2019-01-13T09:50:46.203Z,3.20
2019-01-13T09:53:14.125Z,3.20
2019-01-13T09:55:42.056Z,3.30
2019-01-13T09:58:09.920Z,3.30
2019-01-13T10:00:37.893Z,3.30
2019-01-13T10:03:06.046Z,3.30
2019-01-13T10:05:33.925Z,3.30
2019-01-13T10:08:01.809Z,3.30
2019-01-13T10:10:29.936Z,3.30
2019-01-13T10:12:57.717Z,3.30
2019-01-13T10:15:26.218Z,3.30
2019-01-13T10:17:54.156Z,3.30
2019-01-13T10:20:21.999Z,3.30
2019-01-13T10:22:52.957Z,3.30
2019-01-13T10:25:20.931Z,3.30
2019-01-13T10:27:48.876Z,3.30
2019-01-13T10:30:18.521Z,3.30
2019-01-13T10:32:54.333Z,3.20
2019-01-13T10:35:17.139Z,3.20
2019-01-13T10:37:45.051Z,3.20
2019-01-13T10:40:16.918Z,3.20
2019-01-13T10:42:45.024Z,3.10
2019-01-13T10:45:13.798Z,3.10
2019-01-13T10:47:41.896Z,3.10
2019-01-13T10:50:11.297Z,3.10
2019-01-13T10:52:39.185Z,3.10
2019-01-13T10:55:07.552Z,3.10
2019-01-13T10:57:35.409Z,3.10
2019-01-13T11:00:04.781Z,3.10
2019-01-13T11:02:32.630Z,3.10
2019-01-13T11:05:00.604Z,3.20
2019-01-13T11:07:28.550Z,3.30
2019-01-13T11:09:57.235Z,3.30
2019-01-13T11:12:25.250Z,3.40
2019-01-13T11:14:53.588Z,3.40
2019-01-13T11:17:21.598Z,3.50
2019-01-13T11:19:49.796Z,3.50
2019-01-13T11:22:17.738Z,3.50
2019-01-13T11:24:45.737Z,3.60
2019-01-13T11:27:13.661Z,3.60
2019-01-13T11:29:41.583Z,3.70
2019-01-13T11:32:09.327Z,3.70
2019-01-13T11:34:37.262Z,3.80
2019-01-13T11:37:05.145Z,3.90
2019-01-13T11:39:33.292Z,3.90
2019-01-13T11:42:01.203Z,3.90
2019-01-13T11:44:30.165Z,4.00
2019-01-13T11:46:57.933Z,4.00
2019-01-13T11:49:26.028Z,4.00
2019-01-13T11:51:53.837Z,4.00
2019-01-13T11:54:21.640Z,4.00
2019-01-13T11:56:49.398Z,4.00
2019-01-13T11:59:17.210Z,4.00
2019-01-13T12:01:45.199Z,4.00
2019-01-13T12:04:13.027Z,4.00
2019-01-13T12:06:40.809Z,3.90
2019-01-13T12:09:08.808Z,3.80
2019-01-13T12:11:36.660Z,3.70
2019-01-13T12:14:04.433Z,3.70
2019-01-13T12:16:32.305Z,3.60
2019-01-13T12:19:00.810Z,3.60
2019-01-13T12:21:28.767Z,3.50
2019-01-13T12:23:56.516Z,3.50
2019-01-13T12:26:24.359Z,3.40
2019-01-13T12:28:52.098Z,3.40
2019-01-13T12:31:19.933Z,3.40
2019-01-13T12:33:47.775Z,3.30
2019-01-13T12:36:15.601Z,3.20
2019-01-13T12:38:43.431Z,3.20
2019-01-13T12:41:11.233Z,3.20
2019-01-13T12:43:39.159Z,3.20
2019-01-13T12:46:07.047Z,3.20
2019-01-13T12:48:34.896Z,3.20
2019-01-13T12:51:02.746Z,3.30
2019-01-13T12:53:30.502Z,3.30
2019-01-13T12:55:58.260Z,3.30
2019-01-13T12:58:26.112Z,3.30
2019-01-13T13:00:53.879Z,3.30
2019-01-13T13:03:21.639Z,3.30
2019-01-13T13:05:49.525Z,3.30
2019-01-13T13:08:17.402Z,3.30
2019-01-13T13:10:46.284Z,3.30
2019-01-13T13:13:14.168Z,3.20
2019-01-13T13:15:41.954Z,3.20
2019-01-13T13:18:09.854Z,3.20
2019-01-13T13:20:37.724Z,3.20
2019-01-13T13:23:06.018Z,3.10
2019-01-13T13:25:36.472Z,3.10
2019-01-13T13:28:04.339Z,3.10
2019-01-13T13:30:32.289Z,3.10
2019-01-13T13:33:00.344Z,3.10
2019-01-13T13:35:28.193Z,3.00
2019-01-13T13:37:56.116Z,3.00
2019-01-13T13:40:26.274Z,3.00
2019-01-13T13:42:54.191Z,3.00
2019-01-13T13:45:23.554Z,3.00
2019-01-13T13:47:51.677Z,3.00
2019-01-13T13:50:20.730Z,3.00
2019-01-13T13:52:48.765Z,2.90
2019-01-13T13:55:17.054Z,2.90
2019-01-13T13:57:45.019Z,2.90
2019-01-13T14:00:16.868Z,2.90
2019-01-13T14:02:44.822Z,2.80
2019-01-13T14:05:12.847Z,2.80
2019-01-13T14:07:41.776Z,2.80
2019-01-13T14:10:11.174Z,2.80
2019-01-13T14:12:39.263Z,2.80
2019-01-13T14:15:09.743Z,2.80
2019-01-13T14:17:37.814Z,2.80
2019-01-13T14:20:07.133Z,2.70
2019-01-13T14:22:35.018Z,2.70
2019-01-13T14:25:03.614Z,2.70
2019-01-13T14:27:31.871Z,2.70
2019-01-13T14:30:00.817Z,2.70
2019-01-13T14:32:28.849Z,2.70
2019-01-13T14:34:56.893Z,2.80
2019-01-13T14:37:25.188Z,2.80
2019-01-13T14:39:53.339Z,2.70
2019-01-13T14:42:21.517Z,2.70
2019-01-13T14:44:49.291Z,2.70
2019-01-13T14:47:17.042Z,2.70
2019-01-13T14:49:44.962Z,2.70
2019-01-13T14:52:12.710Z,2.70
2019-01-13T14:54:40.564Z,2.70
2019-01-13T14:57:08.304Z,2.70
2019-01-13T14:59:36.152Z,2.70
2019-01-13T15:02:04.254Z,2.70
2019-01-13T15:04:31.904Z,2.70
2019-01-13T15:07:00.596Z,2.70
2019-01-13T15:09:28.383Z,2.80
2019-01-13T15:11:56.306Z,2.70
2019-01-13T15:14:24.165Z,2.70
2019-01-13T15:16:53.067Z,2.80
2019-01-13T15:19:21.103Z,2.70
2019-01-13T15:21:48.938Z,2.70
2019-01-13T15:24:16.812Z,2.70
2019-01-13T15:26:44.638Z,2.80
2019-01-13T15:29:12.436Z,2.80
2019-01-13T15:31:40.168Z,2.80
2019-01-13T15:34:08.008Z,2.80
2019-01-13T15:36:35.920Z,2.80
2019-01-13T15:39:05.157Z,2.80
2019-01-13T15:41:33.858Z,2.80
2019-01-13T15:44:01.761Z,2.80
2019-01-13T15:46:29.734Z,2.80
2019-01-13T15:48:58.215Z,2.90
2019-01-13T15:51:26.085Z,2.90
2019-01-13T15:53:54.649Z,2.90
2019-01-13T15:56:23.125Z,3.00
2019-01-13T15:58:52.162Z,3.00
2019-01-13T16:01:20.091Z,3.10
2019-01-13T16:03:47.917Z,3.10
2019-01-13T16:06:16.466Z,3.10
2019-01-13T16:08:44.266Z,3.20
2019-01-13T16:11:12.297Z,3.20
2019-01-13T16:13:40.182Z,3.20
2019-01-13T16:16:08.546Z,3.30
2019-01-13T16:18:36.590Z,3.30
2019-01-13T16:21:04.448Z,3.30
2019-01-13T16:23:32.382Z,3.40
2019-01-13T16:26:01.881Z,3.40
2019-01-13T16:28:33.429Z,3.40
2019-01-13T16:31:03.390Z,3.50
2019-01-13T16:33:33.128Z,3.50
2019-01-13T16:36:03.180Z,3.50
2019-01-13T16:38:31.713Z,3.50
2019-01-13T16:40:59.631Z,3.60
2019-01-13T16:43:27.793Z,3.60
2019-01-13T16:45:55.816Z,3.60
2019-01-13T16:48:23.767Z,3.60
2019-01-13T16:50:51.615Z,3.70
2019-01-13T16:53:19.716Z,3.70
2019-01-13T16:55:48.095Z,3.70
2019-01-13T16:58:15.994Z,3.70
2019-01-13T17:00:43.878Z,3.70
2019-01-13T17:03:13.666Z,3.70
2019-01-13T17:05:42.596Z,3.80
2019-01-13T17:08:10.606Z,3.80
2019-01-13T17:10:38.508Z,3.80
2019-01-13T17:13:07.035Z,3.80
2019-01-13T17:15:34.934Z,3.80
2019-01-13T17:18:02.802Z,3.80
2019-01-13T17:20:30.711Z,3.80
2019-01-13T17:22:58.642Z,3.90
2019-01-13T17:25:27.019Z,3.90
2019-01-13T17:27:54.992Z,3.90
2019-01-13T17:30:26.368Z,3.90
2019-01-13T17:32:54.179Z,3.90
2019-01-13T17:35:23.664Z,4.00
2019-01-13T17:37:51.549Z,4.00
2019-01-13T17:40:21.532Z,4.00
2019-01-13T17:42:49.455Z,4.00
2019-01-13T17:45:20.167Z,4.00
2019-01-13T17:47:48.179Z,4.00
2019-01-13T17:50:19.974Z,4.00
2019-01-13T17:52:47.834Z,4.00
2019-01-13T17:55:16.681Z,4.00
2019-01-13T17:57:44.684Z,4.00
2019-01-13T18:00:16.895Z,4.00
2019-01-13T18:02:44.769Z,4.00
2019-01-13T18:05:12.682Z,4.00
2019-01-13T18:07:40.592Z,4.00
2019-01-13T18:10:09.358Z,4.00
2019-01-13T18:12:37.135Z,4.00
2019-01-13T18:15:06.358Z,4.00
2019-01-13T18:17:34.244Z,4.10
2019-01-13T18:20:02.045Z,4.10
2019-01-13T18:22:29.824Z,4.10
2019-01-13T18:24:57.632Z,4.10
2019-01-13T18:27:25.406Z,4.10
2019-01-13T18:29:53.253Z,4.10
2019-01-13T18:32:21.096Z,4.10
2019-01-13T18:34:50.459Z,4.10
2019-01-13T18:37:18.469Z,4.10
2019-01-13T18:39:46.331Z,4.10
2019-01-13T18:42:14.212Z,4.10
2019-01-13T18:44:42.117Z,4.10
2019-01-13T18:47:09.980Z,4.20
2019-01-13T18:49:37.863Z,4.20
2019-01-13T18:52:05.639Z,4.20
2019-01-13T18:54:33.413Z,4.20
2019-01-13T18:57:01.310Z,4.20
2019-01-13T18:59:29.072Z,4.20
2019-01-13T19:01:56.963Z,4.10
2019-01-13T19:04:24.864Z,4.20
2019-01-13T19:06:52.742Z,4.20
2019-01-13T19:09:20.573Z,4.20
2019-01-13T19:11:48.455Z,4.20
2019-01-13T19:14:22.254Z,4.20
2019-01-13T19:16:51.788Z,4.20
2019-01-13T19:19:19.708Z,4.30
2019-01-13T19:21:47.733Z,4.30
2019-01-13T19:24:15.712Z,4.20
2019-01-13T19:26:43.905Z,4.30
2019-01-13T19:29:11.802Z,4.30
2019-01-13T19:31:39.733Z,4.30
2019-01-13T19:34:07.589Z,4.30
2019-01-13T19:36:35.536Z,4.30
2019-01-13T19:39:04.848Z,4.30
2019-01-13T19:41:34.204Z,4.30
2019-01-13T19:44:02.006Z,4.30
2019-01-13T19:46:29.864Z,4.30
2019-01-13T19:48:57.666Z,4.30
2019-01-13T19:51:25.598Z,4.30
2019-01-13T19:53:53.297Z,4.30
2019-01-13T19:56:20.974Z,4.30
2019-01-13T19:58:48.886Z,4.20
2019-01-13T20:01:16.756Z,4.20
2019-01-13T20:03:44.695Z,4.20
2019-01-13T20:06:12.969Z,4.20
2019-01-13T20:08:40.868Z,4.20
2019-01-13T20:11:08.646Z,4.20
2019-01-13T20:13:37.182Z,4.20
2019-01-13T20:16:05.141Z,4.20
2019-01-13T20:18:33.666Z,4.20
2019-01-13T20:21:01.705Z,4.20
2019-01-13T20:23:29.902Z,4.20
2019-01-13T20:25:58.430Z,4.20
2019-01-13T20:28:27.284Z,4.20
2019-01-13T20:30:54.969Z,4.20
2019-01-13T20:33:22.809Z,4.10
2019-01-13T20:35:50.766Z,4.00
2019-01-13T20:38:19.098Z,3.80
2019-01-13T20:40:48.733Z,3.60
2019-01-13T20:43:17.329Z,3.50
2019-01-13T20:45:47.024Z,3.40
2019-01-13T20:48:15.131Z,3.40
2019-01-13T20:50:42.846Z,3.30
2019-01-13T20:53:10.672Z,3.30
2019-01-13T20:55:39.158Z,3.30
2019-01-13T20:58:07.322Z,3.30
2019-01-13T21:00:35.177Z,3.30
2019-01-13T21:03:02.992Z,3.30
2019-01-13T21:05:31.433Z,3.30
2019-01-13T21:07:59.698Z,3.30
2019-01-13T21:10:28.411Z,3.30
2019-01-13T21:12:56.237Z,3.30
2019-01-13T21:15:29.345Z,3.30
2019-01-13T21:17:57.862Z,3.30
2019-01-13T21:20:25.997Z,3.30
2019-01-13T21:22:53.692Z,3.20
2019-01-13T21:25:21.433Z,3.30
2019-01-13T21:27:49.383Z,3.20
2019-01-13T21:30:18.609Z,3.20
2019-01-13T21:32:46.801Z,3.10
2019-01-13T21:35:15.036Z,3.10
2019-01-13T21:37:42.947Z,3.10
2019-01-13T21:40:15.164Z,3.10
2019-01-13T21:42:43.049Z,3.10
2019-01-13T21:45:12.294Z,3.00
2019-01-13T21:47:40.358Z,3.00
2019-01-13T21:50:10.069Z,3.00
2019-01-13T21:52:37.925Z,3.00
2019-01-13T21:55:07.027Z,3.00
2019-01-13T21:57:34.796Z,2.90
2019-01-13T22:00:02.576Z,2.90
2019-01-13T22:02:30.529Z,2.90
2019-01-13T22:04:59.586Z,2.90
2019-01-13T22:07:27.310Z,2.90
2019-01-13T22:09:55.096Z,2.90
2019-01-13T22:12:23.011Z,2.90
2019-01-13T22:14:50.764Z,2.80
2019-01-13T22:17:18.523Z,2.80
2019-01-13T22:19:46.350Z,2.80
2019-01-13T22:22:14.081Z,2.80
2019-01-13T22:24:41.908Z,2.80
2019-01-13T22:27:09.878Z,2.80
2019-01-13T22:29:37.671Z,2.80
2019-01-13T22:32:05.471Z,2.80
2019-01-13T22:34:33.222Z,2.80
2019-01-13T22:37:01.162Z,2.80
2019-01-13T22:39:29.032Z,2.80
2019-01-13T22:41:56.792Z,2.80
2019-01-13T22:44:24.629Z,2.80
2019-01-13T22:46:52.471Z,2.80
2019-01-13T22:49:20.326Z,2.80
2019-01-13T22:51:48.157Z,2.80
2019-01-13T22:54:16.060Z,2.80
2019-01-13T22:56:43.966Z,2.80
2019-01-13T22:59:11.698Z,2.80
2019-01-13T23:01:39.905Z,2.70
2019-01-13T23:04:09.010Z,2.70
2019-01-13T23:06:36.732Z,2.70
2019-01-13T23:09:06.231Z,2.70
2019-01-13T23:11:34.294Z,2.70
2019-01-13T23:14:01.942Z,2.70
2019-01-13T23:16:29.756Z,2.70
2019-01-13T23:18:57.438Z,2.70
2019-01-13T23:21:25.282Z,2.70
2019-01-13T23:23:53.053Z,2.70
2019-01-13T23:26:20.957Z,2.70
2019-01-13T23:28:48.715Z,2.70
2019-01-13T23:31:16.728Z,2.70
2019-01-13T23:33:44.595Z,2.70
2019-01-13T23:36:12.544Z,2.70
2019-01-13T23:38:40.447Z,2.70
2019-01-13T23:41:08.623Z,2.70
2019-01-13T23:43:36.533Z,2.70
2019-01-13T23:46:04.802Z,2.70
2019-01-13T23:48:32.656Z,2.70
2019-01-13T23:51:00.510Z,2.70
2019-01-13T23:53:28.248Z,2.70
2019-01-13T23:55:56.025Z,2.70
2019-01-13T23:58:23.732Z,2.70
